sensor_id;sensor_type;location;lat;lon;timestamp;pressure;altitude;pressure_sealevel;temperature;humidity
16255;BME280;8235;52.198;9.904;2023-12-20T00:00:20;100376.28;;;7.01;100.00
16255;BME280;8235;52.198;9.904;2023-12-20T00:02:48;100372.78;;;7.00;100.00
16255;BME280;8235;52.198;9.904;2023-12-20T00:05:14;100379.78;;;7.01;100.00
16255;BME280;8235;52.198;9.904;2023-12-20T00:07:41;100381.41;;;7.04;100.00
16255;BME280;8235;52.198;9.904;2023-12-20T00:10:09;100376.97;;;7.04;100.00
16255;BME280;8235;52.198;9.904;2023-12-20T00:12:38;100380.56;;;7.03;100.00
16255;BME280;8235;52.198;9.904;2023-12-20T00:15:05;100370.81;;;7.04;100.00
16255;BME280;8235;52.198;9.904;2023-12-20T00:17:32;100377.84;;;7.05;100.00
16255;BME280;8235;52.198;9.904;2023-12-20T00:19:58;100392.09;;;7.02;100.00
16255;BME280;8235;52.198;9.904;2023-12-20T00:22:25;100388.59;;;7.02;100.00
16255;BME280;8235;52.198;9.904;2023-12-20T00:24:51;100381.56;;;7.01;100.00
16255;BME280;8235;52.198;9.904;2023-12-20T00:27:21;100386.78;;;7.02;100.00
16255;BME280;8235;52.198;9.904;2023-12-20T00:29:49;100382.50;;;7.00;100.00
16255;BME280;8235;52.198;9.904;2023-12-20T00:32:15;100390.44;;;7.00;100.00
16255;BME280;8235;52.198;9.904;2023-12-20T00:34:43;100383.47;;;6.99;100.00
16255;BME280;8235;52.198;9.904;2023-12-20T00:37:09;100394.06;;;6.99;100.00
16255;BME280;8235;52.198;9.904;2023-12-20T00:39:36;100396.72;;;6.99;100.00
16255;BME280;8235;52.198;9.904;2023-12-20T00:42:02;100397.88;;;6.93;100.00
16255;BME280;8235;52.198;9.904;2023-12-20T00:44:30;100393.53;;;6.92;100.00
16255;BME280;8235;52.198;9.904;2023-12-20T00:46:57;100401.84;;;6.84;100.00
16255;BME280;8235;52.198;9.904;2023-12-20T00:49:23;100416.19;;;6.80;100.00
16255;BME280;8235;52.198;9.904;2023-12-20T00:51:50;100418.13;;;6.77;100.00
16255;BME280;8235;52.198;9.904;2023-12-20T00:54:18;100407.78;;;6.72;100.00
16255;BME280;8235;52.198;9.904;2023-12-20T00:56:44;100411.50;;;6.68;100.00
16255;BME280;8235;52.198;9.904;2023-12-20T00:59:10;100413.38;;;6.66;100.00
16255;BME280;8235;52.198;9.904;2023-12-20T01:01:38;100408.22;;;6.63;100.00
16255;BME280;8235;52.198;9.904;2023-12-20T01:04:05;100408.41;;;6.60;100.00
16255;BME280;8235;52.198;9.904;2023-12-20T01:06:31;100411.13;;;6.58;100.00
16255;BME280;8235;52.198;9.904;2023-12-20T01:08:58;100410.44;;;6.55;100.00
16255;BME280;8235;52.198;9.904;2023-12-20T01:11:24;100400.84;;;6.52;100.00
16255;BME280;8235;52.198;9.904;2023-12-20T01:13:51;100399.28;;;6.48;100.00
16255;BME280;8235;52.198;9.904;2023-12-20T01:16:20;100402.94;;;6.46;100.00
16255;BME280;8235;52.198;9.904;2023-12-20T01:18:48;100398.63;;;6.45;100.00
16255;BME280;8235;52.198;9.904;2023-12-20T01:21:14;100397.91;;;6.41;100.00
16255;BME280;8235;52.198;9.904;2023-12-20T01:23:43;100405.06;;;6.39;100.00
16255;BME280;8235;52.198;9.904;2023-12-20T01:26:09;100406.06;;;6.37;100.00
16255;BME280;8235;52.198;9.904;2023-12-20T01:28:36;100398.28;;;6.34;100.00
16255;BME280;8235;52.198;9.904;2023-12-20T01:31:03;100409.00;;;6.31;100.00
16255;BME280;8235;52.198;9.904;2023-12-20T01:33:29;100412.56;;;6.30;100.00
16255;BME280;8235;52.198;9.904;2023-12-20T01:36:05;100410.19;;;6.25;100.00
16255;BME280;8235;52.198;9.904;2023-12-20T01:38:31;100405.03;;;6.22;100.00
16255;BME280;8235;52.198;9.904;2023-12-20T01:40:58;100398.97;;;6.20;100.00
16255;BME280;8235;52.198;9.904;2023-12-20T01:43:24;100407.13;;;6.15;100.00
16255;BME280;8235;52.198;9.904;2023-12-20T01:45:53;100405.53;;;6.11;100.00
16255;BME280;8235;52.198;9.904;2023-12-20T01:48:21;100407.41;;;6.09;100.00
16255;BME280;8235;52.198;9.904;2023-12-20T01:50:48;100416.38;;;6.07;100.00
16255;BME280;8235;52.198;9.904;2023-12-20T01:53:17;100411.16;;;6.05;100.00
16255;BME280;8235;52.198;9.904;2023-12-20T01:55:45;100422.66;;;6.04;100.00
16255;BME280;8235;52.198;9.904;2023-12-20T01:58:13;100420.94;;;6.03;100.00
16255;BME280;8235;52.198;9.904;2023-12-20T02:00:40;100418.44;;;6.00;100.00
16255;BME280;8235;52.198;9.904;2023-12-20T02:03:07;100422.00;;;5.99;100.00
16255;BME280;8235;52.198;9.904;2023-12-20T02:05:35;100409.72;;;5.98;100.00
16255;BME280;8235;52.198;9.904;2023-12-20T02:08:01;100424.66;;;5.99;100.00
16255;BME280;8235;52.198;9.904;2023-12-20T02:10:29;100418.50;;;5.99;100.00
16255;BME280;8235;52.198;9.904;2023-12-20T02:12:56;100425.59;;;5.98;100.00
16255;BME280;8235;52.198;9.904;2023-12-20T02:15:22;100418.59;;;5.97;100.00
16255;BME280;8235;52.198;9.904;2023-12-20T02:17:49;100431.78;;;5.97;100.00
16255;BME280;8235;52.198;9.904;2023-12-20T02:20:16;100430.72;;;6.01;100.00
16255;BME280;8235;52.198;9.904;2023-12-20T02:22:44;100428.16;;;6.00;100.00
16255;BME280;8235;52.198;9.904;2023-12-20T02:25:10;100431.72;;;5.99;100.00
16255;BME280;8235;52.198;9.904;2023-12-20T02:27:37;100431.78;;;5.97;100.00
16255;BME280;8235;52.198;9.904;2023-12-20T02:30:05;100430.00;;;5.98;100.00
16255;BME280;8235;52.198;9.904;2023-12-20T02:32:33;100420.44;;;5.95;100.00
16255;BME280;8235;52.198;9.904;2023-12-20T02:35:00;100419.44;;;5.98;100.00
16255;BME280;8235;52.198;9.904;2023-12-20T02:37:26;100408.00;;;5.97;100.00
16255;BME280;8235;52.198;9.904;2023-12-20T02:39:54;100393.22;;;5.93;100.00
16255;BME280;8235;52.198;9.904;2023-12-20T02:42:21;100392.47;;;5.91;100.00
16255;BME280;8235;52.198;9.904;2023-12-20T02:44:47;100397.75;;;5.91;100.00
16255;BME280;8235;52.198;9.904;2023-12-20T02:47:14;100404.91;;;5.89;100.00
16255;BME280;8235;52.198;9.904;2023-12-20T02:49:40;100405.78;;;5.88;100.00
16255;BME280;8235;52.198;9.904;2023-12-20T02:52:07;100395.44;;;5.83;100.00
16255;BME280;8235;52.198;9.904;2023-12-20T02:54:33;100397.34;;;5.80;100.00
16255;BME280;8235;52.198;9.904;2023-12-20T02:57:01;100382.34;;;5.80;100.00
16255;BME280;8235;52.198;9.904;2023-12-20T02:59:31;100390.50;;;5.76;100.00
16255;BME280;8235;52.198;9.904;2023-12-20T03:01:57;100379.13;;;5.74;100.00
16255;BME280;8235;52.198;9.904;2023-12-20T03:04:23;100388.97;;;5.72;100.00
16255;BME280;8235;52.198;9.904;2023-12-20T03:06:50;100388.16;;;5.70;100.00
16255;BME280;8235;52.198;9.904;2023-12-20T03:09:17;100384.75;;;5.68;100.00
16255;BME280;8235;52.198;9.904;2023-12-20T03:11:43;100388.31;;;5.67;100.00
16255;BME280;8235;52.198;9.904;2023-12-20T03:14:11;100382.16;;;5.66;100.00
16255;BME280;8235;52.198;9.904;2023-12-20T03:16:37;100389.31;;;5.64;100.00
16255;BME280;8235;52.198;9.904;2023-12-20T03:19:04;100374.53;;;5.60;100.00
16255;BME280;8235;52.198;9.904;2023-12-20T03:21:30;100374.66;;;5.57;100.00
16255;BME280;8235;52.198;9.904;2023-12-20T03:23:57;100379.25;;;5.53;99.90
16255;BME280;8235;52.198;9.904;2023-12-20T03:26:23;100374.03;;;5.52;99.45
16255;BME280;8235;52.198;9.904;2023-12-20T03:28:50;100370.69;;;5.48;99.33
16255;BME280;8235;52.198;9.904;2023-12-20T03:31:18;100371.59;;;5.47;99.94
16255;BME280;8235;52.198;9.904;2023-12-20T03:33:46;100359.41;;;5.45;100.00
16255;BME280;8235;52.198;9.904;2023-12-20T03:36:12;100365.59;;;5.44;100.00
16255;BME280;8235;52.198;9.904;2023-12-20T03:38:39;100350.63;;;5.44;100.00
16255;BME280;8235;52.198;9.904;2023-12-20T03:41:07;100340.06;;;5.44;100.00
16255;BME280;8235;52.198;9.904;2023-12-20T03:43:33;100333.97;;;5.42;100.00
16255;BME280;8235;52.198;9.904;2023-12-20T03:45:59;100337.63;;;5.40;100.00
16255;BME280;8235;52.198;9.904;2023-12-20T03:48:30;100336.69;;;5.41;100.00
16255;BME280;8235;52.198;9.904;2023-12-20T03:50:56;100336.75;;;5.39;100.00
16255;BME280;8235;52.198;9.904;2023-12-20T03:53:23;100340.34;;;5.38;100.00
16255;BME280;8235;52.198;9.904;2023-12-20T03:55:49;100344.69;;;5.39;100.00
16255;BME280;8235;52.198;9.904;2023-12-20T03:58:16;100338.66;;;5.37;100.00
16255;BME280;8235;52.198;9.904;2023-12-20T04:00:42;100335.75;;;5.42;100.00
16255;BME280;8235;52.198;9.904;2023-12-20T04:03:09;100338.47;;;5.40;100.00
16255;BME280;8235;52.198;9.904;2023-12-20T04:05:41;100340.19;;;5.41;100.00
16255;BME280;8235;52.198;9.904;2023-12-20T04:08:08;100343.75;;;5.40;100.00
16255;BME280;8235;52.198;9.904;2023-12-20T04:10:35;100349.81;;;5.42;100.00
16255;BME280;8235;52.198;9.904;2023-12-20T04:13:02;100338.34;;;5.43;100.00
16255;BME280;8235;52.198;9.904;2023-12-20T04:15:29;100333.97;;;5.42;100.00
16255;BME280;8235;52.198;9.904;2023-12-20T04:17:56;100331.41;;;5.41;100.00
16255;BME280;8235;52.198;9.904;2023-12-20T04:20:22;100341.13;;;5.40;100.00
16255;BME280;8235;52.198;9.904;2023-12-20T04:22:50;100330.56;;;5.40;100.00
16255;BME280;8235;52.198;9.904;2023-12-20T04:25:18;100331.28;;;5.44;100.00
16255;BME280;8235;52.198;9.904;2023-12-20T04:27:47;100325.13;;;5.43;100.00
16255;BME280;8235;52.198;9.904;2023-12-20T04:30:14;100332.06;;;5.46;100.00
16255;BME280;8235;52.198;9.904;2023-12-20T04:32:40;100331.19;;;5.45;100.00
16255;BME280;8235;52.198;9.904;2023-12-20T04:35:07;100331.28;;;5.44;100.00
16255;BME280;8235;52.198;9.904;2023-12-20T04:37:34;100331.91;;;5.49;100.00
16255;BME280;8235;52.198;9.904;2023-12-20T04:40:02;100336.22;;;5.51;100.00
16255;BME280;8235;52.198;9.904;2023-12-20T04:42:30;100334.34;;;5.53;100.00
16255;BME280;8235;52.198;9.904;2023-12-20T04:44:57;100333.44;;;5.54;100.00
16255;BME280;8235;52.198;9.904;2023-12-20T04:47:23;100321.81;;;5.57;100.00
16255;BME280;8235;52.198;9.904;2023-12-20T04:49:50;100318.31;;;5.56;100.00
16255;BME280;8235;52.198;9.904;2023-12-20T04:52:16;100320.91;;;5.58;100.00
16255;BME280;8235;52.198;9.904;2023-12-20T04:54:44;100315.34;;;5.64;100.00
16255;BME280;8235;52.198;9.904;2023-12-20T04:57:14;100318.84;;;5.65;100.00
16255;BME280;8235;52.198;9.904;2023-12-20T04:59:40;100325.03;;;5.64;100.00
16255;BME280;8235;52.198;9.904;2023-12-20T05:02:07;100318.91;;;5.63;100.00
16255;BME280;8235;52.198;9.904;2023-12-20T05:04:33;100323.19;;;5.66;100.00
16255;BME280;8235;52.198;9.904;2023-12-20T05:07:05;100328.41;;;5.67;100.00
16255;BME280;8235;52.198;9.904;2023-12-20T05:09:31;100322.31;;;5.65;100.00
16255;BME280;8235;52.198;9.904;2023-12-20T05:11:58;100330.19;;;5.67;100.00
16255;BME280;8235;52.198;9.904;2023-12-20T05:14:27;100327.53;;;5.67;100.00
16255;BME280;8235;52.198;9.904;2023-12-20T05:16:53;100329.31;;;5.66;100.00
16255;BME280;8235;52.198;9.904;2023-12-20T05:19:19;100317.91;;;5.66;100.00
16255;BME280;8235;52.198;9.904;2023-12-20T05:21:46;100320.41;;;5.69;100.00
16255;BME280;8235;52.198;9.904;2023-12-20T05:24:15;100312.53;;;5.67;100.00
16255;BME280;8235;52.198;9.904;2023-12-20T05:26:41;100312.63;;;5.66;100.00
16255;BME280;8235;52.198;9.904;2023-12-20T05:29:10;100317.75;;;5.69;100.00
16255;BME280;8235;52.198;9.904;2023-12-20T05:31:39;100313.41;;;5.68;100.00
16255;BME280;8235;52.198;9.904;2023-12-20T05:34:05;100314.19;;;5.70;100.00
16255;BME280;8235;52.198;9.904;2023-12-20T05:36:32;100319.47;;;5.70;100.00
16255;BME280;8235;52.198;9.904;2023-12-20T05:39:00;100314.03;;;5.73;100.00
16255;BME280;8235;52.198;9.904;2023-12-20T05:41:26;100302.63;;;5.72;100.00
16255;BME280;8235;52.198;9.904;2023-12-20T05:43:52;100306.94;;;5.73;100.00
16255;BME280;8235;52.198;9.904;2023-12-20T05:46:22;100302.44;;;5.75;100.00
16255;BME280;8235;52.198;9.904;2023-12-20T05:48:50;100305.88;;;5.77;100.00
16255;BME280;8235;52.198;9.904;2023-12-20T05:51:17;100304.16;;;5.76;100.00
16255;BME280;8235;52.198;9.904;2023-12-20T05:53:43;100312.00;;;5.78;100.00
16255;BME280;8235;52.198;9.904;2023-12-20T05:56:10;100314.66;;;5.78;100.00
16255;BME280;8235;52.198;9.904;2023-12-20T05:58:39;100314.50;;;5.81;100.00
16255;BME280;8235;52.198;9.904;2023-12-20T06:01:05;100314.50;;;5.81;100.00
16255;BME280;8235;52.198;9.904;2023-12-20T06:03:33;100304.72;;;5.83;100.00
16255;BME280;8235;52.198;9.904;2023-12-20T06:06:06;100313.56;;;5.82;100.00
16255;BME280;8235;52.198;9.904;2023-12-20T06:08:32;100316.22;;;5.82;100.00
16255;BME280;8235;52.198;9.904;2023-12-20T06:10:59;100315.38;;;5.81;100.00
16255;BME280;8235;52.198;9.904;2023-12-20T06:13:25;100331.06;;;5.84;100.00
16255;BME280;8235;52.198;9.904;2023-12-20T06:15:52;100310.94;;;5.82;100.00
16255;BME280;8235;52.198;9.904;2023-12-20T06:18:18;100315.44;;;5.80;100.00
16255;BME280;8235;52.198;9.904;2023-12-20T06:20:45;100319.94;;;5.78;100.00
16255;BME280;8235;52.198;9.904;2023-12-20T06:23:13;100309.38;;;5.78;100.00
16255;BME280;8235;52.198;9.904;2023-12-20T06:25:39;100307.66;;;5.77;100.00
16255;BME280;8235;52.198;9.904;2023-12-20T06:28:07;100308.50;;;5.77;100.00
16255;BME280;8235;52.198;9.904;2023-12-20T06:30:35;100301.50;;;5.76;100.00
16255;BME280;8235;52.198;9.904;2023-12-20T06:33:02;100294.59;;;5.74;100.00
16255;BME280;8235;52.198;9.904;2023-12-20T06:35:28;100299.00;;;5.73;100.00
16255;BME280;8235;52.198;9.904;2023-12-20T06:37:55;100299.88;;;5.74;100.00
16255;BME280;8235;52.198;9.904;2023-12-20T06:40:30;100300.97;;;5.70;100.00
16255;BME280;8235;52.198;9.904;2023-12-20T06:42:56;100316.03;;;5.68;100.00
16255;BME280;8235;52.198;9.904;2023-12-20T06:45:24;100317.69;;;5.70;100.00
16255;BME280;8235;52.198;9.904;2023-12-20T06:47:51;100307.19;;;5.69;100.00
16255;BME280;8235;52.198;9.904;2023-12-20T06:50:19;100305.41;;;5.69;100.00
16255;BME280;8235;52.198;9.904;2023-12-20T06:52:46;100307.41;;;5.64;100.00
16255;BME280;8235;52.198;9.904;2023-12-20T06:55:12;100305.63;;;5.65;100.00
16255;BME280;8235;52.198;9.904;2023-12-20T06:57:40;100306.41;;;5.67;100.00
16255;BME280;8235;52.198;9.904;2023-12-20T07:00:07;100311.91;;;5.62;100.00
16255;BME280;8235;52.198;9.904;2023-12-20T07:02:34;100309.34;;;5.61;100.00
16255;BME280;8235;52.198;9.904;2023-12-20T07:05:01;100298.69;;;5.62;100.00
16255;BME280;8235;52.198;9.904;2023-12-20T07:07:27;100301.41;;;5.61;100.00
16255;BME280;8235;52.198;9.904;2023-12-20T07:09:54;100287.28;;;5.62;100.00
16255;BME280;8235;52.198;9.904;2023-12-20T07:12:20;100282.19;;;5.57;100.00
16255;BME280;8235;52.198;9.904;2023-12-20T07:14:48;100281.53;;;5.53;100.00
16255;BME280;8235;52.198;9.904;2023-12-20T07:17:14;100290.38;;;5.52;100.00
16255;BME280;8235;52.198;9.904;2023-12-20T07:19:41;100293.09;;;5.51;100.00
16255;BME280;8235;52.198;9.904;2023-12-20T07:22:08;100292.22;;;5.50;100.00
16255;BME280;8235;52.198;9.904;2023-12-20T07:24:34;100293.94;;;5.51;100.00
16255;BME280;8235;52.198;9.904;2023-12-20T07:27:02;100291.38;;;5.50;100.00
16255;BME280;8235;52.198;9.904;2023-12-20T07:29:29;100293.16;;;5.49;100.00
16255;BME280;8235;52.198;9.904;2023-12-20T07:31:56;100287.81;;;5.51;100.00
16255;BME280;8235;52.198;9.904;2023-12-20T07:34:24;100292.38;;;5.47;100.00
16255;BME280;8235;52.198;9.904;2023-12-20T07:36:50;100295.78;;;5.49;100.00
16255;BME280;8235;52.198;9.904;2023-12-20T07:39:17;100295.94;;;5.46;100.00
16255;BME280;8235;52.198;9.904;2023-12-20T07:41:46;100296.09;;;5.43;100.00
16255;BME280;8235;52.198;9.904;2023-12-20T07:44:12;100307.22;;;5.50;100.00
16255;BME280;8235;52.198;9.904;2023-12-20T07:46:40;100301.94;;;5.50;100.00
16255;BME280;8235;52.198;9.904;2023-12-20T07:49:08;100307.94;;;5.53;100.00
16255;BME280;8235;52.198;9.904;2023-12-20T07:51:35;100306.06;;;5.55;100.00
16255;BME280;8235;52.198;9.904;2023-12-20T07:54:04;100300.75;;;5.55;100.00
16255;BME280;8235;52.198;9.904;2023-12-20T07:56:34;100304.13;;;5.59;100.00
16255;BME280;8235;52.198;9.904;2023-12-20T07:59:03;100300.47;;;5.62;100.00
16255;BME280;8235;52.198;9.904;2023-12-20T08:01:30;100294.34;;;5.61;100.00
16255;BME280;8235;52.198;9.904;2023-12-20T08:03:57;100292.69;;;5.58;100.00
16255;BME280;8235;52.198;9.904;2023-12-20T08:06:25;100301.47;;;5.59;100.00
16255;BME280;8235;52.198;9.904;2023-12-20T08:08:51;100299.63;;;5.61;100.00
16255;BME280;8235;52.198;9.904;2023-12-20T08:11:18;100302.06;;;5.66;100.00
16255;BME280;8235;52.198;9.904;2023-12-20T08:13:44;100295.84;;;5.67;100.00
16255;BME280;8235;52.198;9.904;2023-12-20T08:16:13;100293.19;;;5.67;100.00
16255;BME280;8235;52.198;9.904;2023-12-20T08:18:44;100293.13;;;5.68;100.00
16255;BME280;8235;52.198;9.904;2023-12-20T08:21:11;100291.34;;;5.69;100.00
16255;BME280;8235;52.198;9.904;2023-12-20T08:23:39;100306.19;;;5.71;100.00
16255;BME280;8235;52.198;9.904;2023-12-20T08:26:05;100304.47;;;5.70;100.00
16255;BME280;8235;52.198;9.904;2023-12-20T08:28:33;100295.63;;;5.71;100.00
16255;BME280;8235;52.198;9.904;2023-12-20T08:31:00;100299.72;;;5.77;100.00
16255;BME280;8235;52.198;9.904;2023-12-20T08:33:26;100298.72;;;5.79;100.00
16255;BME280;8235;52.198;9.904;2023-12-20T08:35:53;100291.59;;;5.81;100.00
16255;BME280;8235;52.198;9.904;2023-12-20T08:38:19;100293.38;;;5.81;100.00
16255;BME280;8235;52.198;9.904;2023-12-20T08:40:47;100278.28;;;5.83;100.00
16255;BME280;8235;52.198;9.904;2023-12-20T08:43:14;100286.06;;;5.86;100.00
16255;BME280;8235;52.198;9.904;2023-12-20T08:45:40;100271.00;;;5.88;100.00
16255;BME280;8235;52.198;9.904;2023-12-20T08:48:07;100271.88;;;5.88;100.00
16255;BME280;8235;52.198;9.904;2023-12-20T08:50:33;100271.00;;;5.88;100.00
16255;BME280;8235;52.198;9.904;2023-12-20T08:53:00;100262.84;;;5.92;100.00
16255;BME280;8235;52.198;9.904;2023-12-20T08:55:26;100250.50;;;5.93;100.00
16255;BME280;8235;52.198;9.904;2023-12-20T08:57:55;100249.41;;;5.97;100.00
16255;BME280;8235;52.198;9.904;2023-12-20T09:00:23;100254.69;;;5.97;100.00
16255;BME280;8235;52.198;9.904;2023-12-20T09:02:52;100242.19;;;6.01;100.00
16255;BME280;8235;52.198;9.904;2023-12-20T09:05:19;100250.03;;;6.02;100.00
16255;BME280;8235;52.198;9.904;2023-12-20T09:07:45;100252.75;;;6.01;100.00
16255;BME280;8235;52.198;9.904;2023-12-20T09:10:12;100248.47;;;5.98;100.00
16255;BME280;8235;52.198;9.904;2023-12-20T09:12:38;100247.69;;;5.96;100.00
16255;BME280;8235;52.198;9.904;2023-12-20T09:15:07;100246.69;;;5.99;100.00
16255;BME280;8235;52.198;9.904;2023-12-20T09:17:34;100256.41;;;5.98;100.00
16255;BME280;8235;52.198;9.904;2023-12-20T09:20:00;100240.56;;;5.98;100.00
16255;BME280;8235;52.198;9.904;2023-12-20T09:22:27;100238.69;;;6.00;100.00
16255;BME280;8235;52.198;9.904;2023-12-20T09:24:54;100237.84;;;6.00;100.00
16255;BME280;8235;52.198;9.904;2023-12-20T09:27:20;100230.75;;;6.00;100.00
16255;BME280;8235;52.198;9.904;2023-12-20T09:29:47;100220.25;;;5.99;100.00
16255;BME280;8235;52.198;9.904;2023-12-20T09:32:16;100220.19;;;6.00;100.00
16255;BME280;8235;52.198;9.904;2023-12-20T09:34:45;100202.31;;;6.05;100.00
16255;BME280;8235;52.198;9.904;2023-12-20T09:37:13;100214.75;;;6.03;100.00
16255;BME280;8235;52.198;9.904;2023-12-20T09:39:41;100216.47;;;6.04;100.00
16255;BME280;8235;52.198;9.904;2023-12-20T09:42:09;100206.81;;;6.03;100.00
16255;BME280;8235;52.198;9.904;2023-12-20T09:44:37;100199.66;;;6.05;100.00
16255;BME280;8235;52.198;9.904;2023-12-20T09:47:08;100202.22;;;6.07;100.00
16255;BME280;8235;52.198;9.904;2023-12-20T09:49:36;100180.75;;;6.13;99.49
16255;BME280;8235;52.198;9.904;2023-12-20T09:52:04;100185.94;;;6.14;98.94
16255;BME280;8235;52.198;9.904;2023-12-20T09:54:33;100199.94;;;6.16;99.13
16255;BME280;8235;52.198;9.904;2023-12-20T09:57:00;100190.22;;;6.17;98.69
16255;BME280;8235;52.198;9.904;2023-12-20T09:59:30;100197.22;;;6.18;98.14
16255;BME280;8235;52.198;9.904;2023-12-20T10:02:01;100187.34;;;6.21;97.55
16255;BME280;8235;52.198;9.904;2023-12-20T10:04:31;100179.50;;;6.20;98.38
16255;BME280;8235;52.198;9.904;2023-12-20T10:07:03;100179.41;;;6.21;98.16
16255;BME280;8235;52.198;9.904;2023-12-20T10:09:31;100181.81;;;6.26;98.11
16255;BME280;8235;52.198;9.904;2023-12-20T10:11:58;100185.13;;;6.30;98.34
16255;BME280;8235;52.198;9.904;2023-12-20T10:14:24;100178.22;;;6.27;97.38
16255;BME280;8235;52.198;9.904;2023-12-20T10:16:50;100179.84;;;6.30;97.57
16255;BME280;8235;52.198;9.904;2023-12-20T10:19:19;100171.91;;;6.30;97.48
16255;BME280;8235;52.198;9.904;2023-12-20T10:21:47;100165.53;;;6.34;97.44
16255;BME280;8235;52.198;9.904;2023-12-20T10:24:18;100165.38;;;6.37;97.94
16255;BME280;8235;52.198;9.904;2023-12-20T10:26:44;100152.16;;;6.37;97.83
16255;BME280;8235;52.198;9.904;2023-12-20T10:29:12;100169.72;;;6.38;98.06
16255;BME280;8235;52.198;9.904;2023-12-20T10:31:40;100160.78;;;6.40;98.05
16255;BME280;8235;52.198;9.904;2023-12-20T10:34:07;100151.91;;;6.41;97.48
16255;BME280;8235;52.198;9.904;2023-12-20T10:36:34;100154.47;;;6.43;98.50
16255;BME280;8235;52.198;9.904;2023-12-20T10:39:01;100140.31;;;6.44;98.40
16255;BME280;8235;52.198;9.904;2023-12-20T10:41:30;100152.59;;;6.45;98.56
16255;BME280;8235;52.198;9.904;2023-12-20T10:43:59;100149.59;;;6.51;99.42
16255;BME280;8235;52.198;9.904;2023-12-20T10:46:27;100147.72;;;6.53;98.62
16255;BME280;8235;52.198;9.904;2023-12-20T10:48:55;100161.56;;;6.58;98.80
16255;BME280;8235;52.198;9.904;2023-12-20T10:51:22;100156.13;;;6.61;99.08
16255;BME280;8235;52.198;9.904;2023-12-20T10:53:49;100149.03;;;6.61;98.58
16255;BME280;8235;52.198;9.904;2023-12-20T10:56:17;100150.75;;;6.63;98.81
16255;BME280;8235;52.198;9.904;2023-12-20T10:58:48;100155.91;;;6.64;99.31
16255;BME280;8235;52.198;9.904;2023-12-20T11:01:15;100141.09;;;6.61;98.87
16255;BME280;8235;52.198;9.904;2023-12-20T11:03:47;100139.31;;;6.62;99.36
16255;BME280;8235;52.198;9.904;2023-12-20T11:06:33;100141.59;;;6.68;99.10
16255;BME280;8235;52.198;9.904;2023-12-20T11:09:10;100152.09;;;6.70;99.92
16255;BME280;8235;52.198;9.904;2023-12-20T11:11:52;100135.44;;;6.68;99.19
16255;BME280;8235;52.198;9.904;2023-12-20T11:14:27;100139.09;;;6.65;100.00
16255;BME280;8235;52.198;9.904;2023-12-20T11:17:10;100136.66;;;6.62;100.00
16255;BME280;8235;52.198;9.904;2023-12-20T11:20:03;100136.75;;;6.60;100.00
16255;BME280;8235;52.198;9.904;2023-12-20T11:22:33;100143.81;;;6.60;100.00
16255;BME280;8235;52.198;9.904;2023-12-20T11:25:03;100133.31;;;6.58;100.00
16255;BME280;8235;52.198;9.904;2023-12-20T11:27:33;100127.94;;;6.60;100.00
16255;BME280;8235;52.198;9.904;2023-12-20T11:30:04;100141.19;;;6.60;100.00
16255;BME280;8235;52.198;9.904;2023-12-20T11:32:34;100137.75;;;6.58;100.00
16255;BME280;8235;52.198;9.904;2023-12-20T11:35:16;100129.06;;;6.56;100.00
16255;BME280;8235;52.198;9.904;2023-12-20T11:37:42;100134.34;;;6.56;100.00
16255;BME280;8235;52.198;9.904;2023-12-20T11:40:11;100135.34;;;6.53;100.00
16255;BME280;8235;52.198;9.904;2023-12-20T11:42:40;100132.72;;;6.53;100.00
16255;BME280;8235;52.198;9.904;2023-12-20T11:45:09;100119.72;;;6.49;100.00
16255;BME280;8235;52.198;9.904;2023-12-20T11:47:37;100125.94;;;6.48;100.00
16255;BME280;8235;52.198;9.904;2023-12-20T11:50:05;100111.97;;;6.46;100.00
16255;BME280;8235;52.198;9.904;2023-12-20T11:52:32;100102.34;;;6.45;100.00
16255;BME280;8235;52.198;9.904;2023-12-20T11:54:59;100119.22;;;6.42;100.00
16255;BME280;8235;52.198;9.904;2023-12-20T11:57:25;100107.88;;;6.40;100.00
16255;BME280;8235;52.198;9.904;2023-12-20T11:59:52;100106.94;;;6.41;100.00
16255;BME280;8235;52.198;9.904;2023-12-20T12:02:20;100098.16;;;6.41;100.00
16255;BME280;8235;52.198;9.904;2023-12-20T12:04:48;100116.59;;;6.42;100.00
16255;BME280;8235;52.198;9.904;2023-12-20T12:07:15;100123.66;;;6.42;100.00
16255;BME280;8235;52.198;9.904;2023-12-20T12:09:42;100148.50;;;6.39;100.00
16255;BME280;8235;52.198;9.904;2023-12-20T12:12:09;100168.19;;;6.34;100.00
16255;BME280;8235;52.198;9.904;2023-12-20T12:14:36;100151.97;;;6.24;100.00
16255;BME280;8235;52.198;9.904;2023-12-20T12:17:02;100154.56;;;6.08;100.00
16255;BME280;8235;52.198;9.904;2023-12-20T12:19:30;100162.09;;;5.81;98.90
16255;BME280;8235;52.198;9.904;2023-12-20T12:22:04;100162.66;;;5.71;99.12
16255;BME280;8235;52.198;9.904;2023-12-20T12:24:32;100139.91;;;5.51;100.00
16255;BME280;8235;52.198;9.904;2023-12-20T12:26:58;100140.34;;;5.42;100.00
16255;BME280;8235;52.198;9.904;2023-12-20T12:29:25;100149.75;;;5.30;100.00
16255;BME280;8235;52.198;9.904;2023-12-20T12:31:53;100143.97;;;5.22;100.00
16255;BME280;8235;52.198;9.904;2023-12-20T12:34:20;100147.84;;;5.15;100.00
16255;BME280;8235;52.198;9.904;2023-12-20T12:36:48;100144.00;;;5.03;100.00
16255;BME280;8235;52.198;9.904;2023-12-20T12:39:15;100150.31;;;5.01;100.00
16255;BME280;8235;52.198;9.904;2023-12-20T12:41:41;100120.25;;;5.03;100.00
16255;BME280;8235;52.198;9.904;2023-12-20T12:44:08;100129.34;;;4.98;100.00
16255;BME280;8235;52.198;9.904;2023-12-20T12:46:37;100130.34;;;4.95;100.00
16255;BME280;8235;52.198;9.904;2023-12-20T12:49:04;100130.50;;;4.92;100.00
16255;BME280;8235;52.198;9.904;2023-12-20T12:51:30;100133.06;;;4.94;100.00
16255;BME280;8235;52.198;9.904;2023-12-20T12:53:58;100120.94;;;4.89;100.00
16255;BME280;8235;52.198;9.904;2023-12-20T12:56:24;100112.38;;;4.84;99.79
16255;BME280;8235;52.198;9.904;2023-12-20T12:58:51;100114.41;;;4.79;97.50
16255;BME280;8235;52.198;9.904;2023-12-20T13:01:17;100116.25;;;4.77;97.15
16255;BME280;8235;52.198;9.904;2023-12-20T13:03:44;100115.41;;;4.77;97.74